createdAt,value
2017-09-03T00:02:22.613Z,15.45
2017-09-03T00:04:50.056Z,18.58
2017-09-03T00:07:17.495Z,15.70
2017-09-03T00:09:44.933Z,18.70
2017-09-03T00:12:12.374Z,14.63
2017-09-03T00:14:39.811Z,14.63
2017-09-03T00:17:07.256Z,15.40
2017-09-03T00:19:34.691Z,21.37
2017-09-03T00:22:02.137Z,21.92
2017-09-03T00:24:29.571Z,17.60
2017-09-03T00:26:57.015Z,16.60
2017-09-03T00:29:24.456Z,17.15
2017-09-03T00:31:51.905Z,18.10
2017-09-03T00:34:19.348Z,17.70
2017-09-03T00:36:46.790Z,15.43
2017-09-03T00:39:14.237Z,17.77
2017-09-03T00:41:41.678Z,15.02
2017-09-03T00:44:09.125Z,18.23
2017-09-03T00:46:36.571Z,15.45
2017-09-03T00:49:04.012Z,15.80
2017-09-03T00:51:31.457Z,18.12
2017-09-03T00:53:58.898Z,18.65
2017-09-03T00:56:26.343Z,15.55
2017-09-03T00:58:53.779Z,15.10
2017-09-03T01:01:21.236Z,15.70
2017-09-03T01:03:48.679Z,17.23
2017-09-03T01:06:16.121Z,20.95
2017-09-03T01:08:43.568Z,16.70
2017-09-03T01:11:11.008Z,18.42
2017-09-03T01:13:38.452Z,16.87
2017-09-03T01:16:05.895Z,15.45
2017-09-03T01:18:33.344Z,16.48
2017-09-03T01:21:00.780Z,18.02
2017-09-03T01:23:28.228Z,17.05
2017-09-03T01:25:55.669Z,15.60
2017-09-03T01:28:23.115Z,18.05
2017-09-03T01:30:50.552Z,16.80
2017-09-03T01:33:17.995Z,15.70
2017-09-03T01:35:45.440Z,20.48
2017-09-03T01:38:12.893Z,20.58
2017-09-03T01:40:40.327Z,22.48
2017-09-03T01:43:07.772Z,18.15
2017-09-03T01:45:35.212Z,19.87
2017-09-03T01:48:02.662Z,18.08
2017-09-03T01:50:30.097Z,14.20
2017-09-03T01:52:57.541Z,16.52
2017-09-03T01:55:24.989Z,17.20
2017-09-03T01:57:52.427Z,17.85
2017-09-03T02:00:19.867Z,17.45
2017-09-03T02:02:47.311Z,18.35
2017-09-03T02:05:14.743Z,15.15
2017-09-03T02:07:42.200Z,17.10
2017-09-03T02:10:09.639Z,15.45
2017-09-03T02:12:37.068Z,16.02
2017-09-03T02:15:04.514Z,16.10
2017-09-03T02:17:31.952Z,17.92
2017-09-03T02:19:59.400Z,14.82
2017-09-03T02:22:26.828Z,15.55
2017-09-03T02:24:54.276Z,20.40
2017-09-03T02:27:21.720Z,17.40
2017-09-03T02:29:49.163Z,20.42
2017-09-03T02:32:16.600Z,17.83
2017-09-03T02:34:44.049Z,15.20
2017-09-03T02:37:11.491Z,18.20
2017-09-03T02:39:38.928Z,17.58
2017-09-03T02:42:06.364Z,19.17
2017-09-03T02:44:33.815Z,15.60
2017-09-03T02:47:01.244Z,17.92
2017-09-03T02:49:28.680Z,17.30
2017-09-03T02:51:56.120Z,17.08
2017-09-03T02:54:23.565Z,15.98
2017-09-03T02:56:51.003Z,17.65
2017-09-03T02:59:18.443Z,16.35
2017-09-03T03:01:45.881Z,19.37
2017-09-03T03:04:13.317Z,15.93
2017-09-03T03:06:40.755Z,14.95
2017-09-03T03:09:08.203Z,15.95
2017-09-03T03:11:35.645Z,16.50
2017-09-03T03:14:03.080Z,15.45
2017-09-03T03:16:30.511Z,18.85
2017-09-03T03:18:57.949Z,17.48
2017-09-03T03:21:25.400Z,17.90
2017-09-03T03:23:52.835Z,19.45
2017-09-03T03:26:20.276Z,16.08
2017-09-03T03:28:47.717Z,16.02
2017-09-03T03:31:15.156Z,15.65
2017-09-03T03:33:42.592Z,16.40
2017-09-03T03:36:10.040Z,18.15
2017-09-03T03:38:37.476Z,16.10
2017-09-03T03:41:04.922Z,15.88
2017-09-03T03:43:32.364Z,18.00
2017-09-03T03:48:33.857Z,20.42
2017-09-03T03:51:01.300Z,19.50
2017-09-03T03:53:28.742Z,19.35
2017-09-03T03:55:56.187Z,20.52
2017-09-03T03:58:23.623Z,18.20
2017-09-03T04:00:51.064Z,21.30
2017-09-03T04:03:18.504Z,24.60
2017-09-03T04:05:45.947Z,22.27
2017-09-03T04:08:13.383Z,22.00
2017-09-03T04:10:40.848Z,20.10
2017-09-03T04:13:08.291Z,26.20
2017-09-03T04:15:35.733Z,22.23
2017-09-03T04:18:03.181Z,23.67
2017-09-03T04:20:30.620Z,23.85
2017-09-03T04:22:58.059Z,25.05
2017-09-03T04:25:25.499Z,28.00
2017-09-03T04:27:52.939Z,26.25
2017-09-03T04:30:20.383Z,24.85
2017-09-03T04:32:47.828Z,21.98
2017-09-03T04:35:15.271Z,27.77
2017-09-03T04:37:42.714Z,25.85
2017-09-03T04:40:10.148Z,26.83
2017-09-03T04:42:37.586Z,27.42
2017-09-03T04:45:05.024Z,29.73
2017-09-03T04:47:32.464Z,27.27
2017-09-03T04:49:59.912Z,29.60
2017-09-03T04:52:27.360Z,24.80
2017-09-03T04:54:54.797Z,39.00
2017-09-03T04:57:22.238Z,29.30
2017-09-03T04:59:49.685Z,25.45
2017-09-03T05:02:17.132Z,28.90
2017-09-03T05:04:44.566Z,31.75
2017-09-03T05:07:12.010Z,30.25
2017-09-03T05:09:39.444Z,26.55
2017-09-03T05:12:06.908Z,21.85
2017-09-03T05:14:34.343Z,25.30
2017-09-03T05:17:01.781Z,25.83
2017-09-03T05:19:29.223Z,30.40
2017-09-03T05:21:56.659Z,32.92
2017-09-03T05:24:24.099Z,27.60
2017-09-03T05:26:51.539Z,25.58
2017-09-03T05:29:18.984Z,27.62
2017-09-03T05:31:46.423Z,26.48
2017-09-03T05:34:13.869Z,33.10
2017-09-03T05:36:41.307Z,28.33
2017-09-03T05:39:08.754Z,26.33
2017-09-03T05:41:36.193Z,31.35
2017-09-03T05:44:03.645Z,25.12
2017-09-03T05:46:31.079Z,29.95
2017-09-03T05:48:58.519Z,24.67
2017-09-03T05:51:25.965Z,26.25
2017-09-03T05:53:53.409Z,29.08
2017-09-03T05:56:20.847Z,25.60
2017-09-03T05:58:48.288Z,29.50
2017-09-03T06:01:15.724Z,24.27
2017-09-03T06:03:43.171Z,26.83
2017-09-03T06:06:10.616Z,30.80
2017-09-03T06:08:38.061Z,25.15
2017-09-03T06:11:05.504Z,24.25
2017-09-03T06:13:32.969Z,24.52
2017-09-03T06:16:00.414Z,26.50
2017-09-03T06:18:27.851Z,27.42
2017-09-03T06:20:55.298Z,22.33
2017-09-03T06:23:22.744Z,23.75
2017-09-03T06:25:50.195Z,25.50
2017-09-03T06:28:17.637Z,24.80
2017-09-03T06:30:45.080Z,25.80
2017-09-03T06:33:12.530Z,26.73
2017-09-03T06:35:39.980Z,24.77
2017-09-03T06:38:07.428Z,22.73
2017-09-03T06:40:34.874Z,24.55
2017-09-03T06:43:02.323Z,19.77
2017-09-03T06:45:29.767Z,24.20
2017-09-03T06:47:57.220Z,19.65
2017-09-03T06:50:24.668Z,28.42
2017-09-03T06:52:52.111Z,21.92
2017-09-03T06:55:19.562Z,24.63
2017-09-03T06:57:47.003Z,20.83
2017-09-03T07:00:14.459Z,22.45
2017-09-03T07:02:41.908Z,18.02
2017-09-03T07:05:09.355Z,21.60
2017-09-03T07:07:36.809Z,23.10
2017-09-03T07:10:04.261Z,20.45
2017-09-03T07:12:31.708Z,18.00
2017-09-03T07:14:59.180Z,16.83
2017-09-03T07:17:26.626Z,19.67
2017-09-03T07:19:54.071Z,20.75
2017-09-03T07:22:21.527Z,17.37
2017-09-03T07:24:48.972Z,22.77
2017-09-03T07:27:16.423Z,19.35
2017-09-03T07:29:43.873Z,19.90
2017-09-03T07:32:11.319Z,23.70
2017-09-03T07:34:38.768Z,18.87
2017-09-03T07:37:06.219Z,18.85
2017-09-03T07:39:33.679Z,17.45
2017-09-03T07:42:01.127Z,19.83
2017-09-03T07:44:28.575Z,21.25
2017-09-03T07:46:56.018Z,20.05
2017-09-03T07:49:23.471Z,22.52
2017-09-03T07:51:50.923Z,18.27
2017-09-03T07:54:18.381Z,18.73
2017-09-03T07:56:45.837Z,20.15
2017-09-03T07:59:13.283Z,18.33
2017-09-03T08:01:40.738Z,17.37
2017-09-03T08:04:08.191Z,20.85
2017-09-03T08:06:35.642Z,20.20
2017-09-03T08:09:03.083Z,19.20
2017-09-03T08:11:30.529Z,17.17
2017-09-03T08:13:57.964Z,14.40
2017-09-03T08:16:25.428Z,18.53
2017-09-03T08:18:52.877Z,15.27
2017-09-03T08:21:20.312Z,14.27
2017-09-03T08:23:47.764Z,14.73
2017-09-03T08:26:15.204Z,16.07
2017-09-03T08:28:42.649Z,16.03
2017-09-03T08:31:10.100Z,16.40
2017-09-03T08:33:37.535Z,18.03
2017-09-03T08:36:04.979Z,14.97
2017-09-03T08:38:32.427Z,14.93
2017-09-03T08:40:59.869Z,18.60
2017-09-03T08:43:27.315Z,17.13
2017-09-03T08:45:54.760Z,16.73
2017-09-03T08:48:22.206Z,13.93
2017-09-03T08:50:49.667Z,15.93
2017-09-03T08:53:17.122Z,14.05
2017-09-03T08:55:44.576Z,16.73
2017-09-03T08:58:12.037Z,12.63
2017-09-03T09:00:39.478Z,15.57
2017-09-03T09:03:06.929Z,13.63
2017-09-03T09:05:34.385Z,14.20
2017-09-03T09:08:01.839Z,12.25
2017-09-03T09:10:29.291Z,12.43
2017-09-03T09:12:56.758Z,11.30
2017-09-03T09:15:24.190Z,12.33
2017-09-03T09:17:51.656Z,15.13
2017-09-03T09:20:19.142Z,15.00
2017-09-03T09:22:46.576Z,12.13
2017-09-03T09:25:14.100Z,11.47
2017-09-03T09:27:41.548Z,15.37
2017-09-03T09:30:09.039Z,12.63
2017-09-03T09:32:36.617Z,11.40
2017-09-03T09:35:04.068Z,12.90
2017-09-03T09:37:31.515Z,11.30
2017-09-03T09:39:59.031Z,11.40
2017-09-03T09:42:26.672Z,11.60
2017-09-03T09:44:54.182Z,13.50
2017-09-03T09:47:21.600Z,12.37
2017-09-03T09:49:49.043Z,12.07
2017-09-03T09:52:16.497Z,10.70
2017-09-03T09:54:43.947Z,10.63
2017-09-03T09:57:11.378Z,13.40
2017-09-03T09:59:38.832Z,11.80
2017-09-03T10:02:06.342Z,10.27
2017-09-03T10:04:33.896Z,10.93
2017-09-03T10:07:01.386Z,13.50
2017-09-03T10:09:28.831Z,9.17
2017-09-03T10:11:56.283Z,11.90
2017-09-03T10:14:23.778Z,11.30
2017-09-03T10:16:51.217Z,11.57
2017-09-03T10:19:18.694Z,10.23
2017-09-03T10:21:46.131Z,17.03
2017-09-03T10:24:13.672Z,12.90
2017-09-03T10:26:41.123Z,10.43
2017-09-03T10:29:08.609Z,14.50
2017-09-03T10:31:36.144Z,11.70
2017-09-03T10:34:03.621Z,11.37
2017-09-03T10:36:31.150Z,18.23
2017-09-03T10:38:58.614Z,13.93
2017-09-03T10:41:26.214Z,10.53
2017-09-03T10:43:53.696Z,11.30
2017-09-03T10:46:21.168Z,13.00
2017-09-03T10:48:48.612Z,11.95
2017-09-03T10:51:16.052Z,9.60
2017-09-03T10:53:43.484Z,9.73
2017-09-03T10:56:11.768Z,14.03
2017-09-03T10:58:39.230Z,10.27
2017-09-03T11:01:06.669Z,14.97
2017-09-03T11:03:34.153Z,10.97
2017-09-03T11:06:01.614Z,8.77
2017-09-03T11:08:29.149Z,8.17
2017-09-03T11:10:56.630Z,9.13
2017-09-03T11:13:24.130Z,12.53
2017-09-03T11:15:51.567Z,8.53
2017-09-03T11:18:19.001Z,9.03
2017-09-03T11:20:46.561Z,9.17
2017-09-03T11:23:14.010Z,11.07
2017-09-03T11:25:41.476Z,12.93
2017-09-03T11:28:09.066Z,9.20
2017-09-03T11:30:36.479Z,9.80
2017-09-03T11:33:03.927Z,10.57
2017-09-03T11:35:31.379Z,11.93
2017-09-03T11:37:58.826Z,11.60
2017-09-03T11:40:26.255Z,11.73
2017-09-03T11:42:53.692Z,9.73
2017-09-03T11:45:21.243Z,10.80
2017-09-03T11:47:48.667Z,12.47
2017-09-03T11:50:16.118Z,10.30
2017-09-03T11:52:43.575Z,13.63
2017-09-03T11:55:11.032Z,17.53
2017-09-03T11:57:38.503Z,8.97
2017-09-03T12:00:05.970Z,11.30
2017-09-03T12:02:33.440Z,16.83
2017-09-03T12:05:00.924Z,16.63
2017-09-03T12:07:28.415Z,12.90
2017-09-03T12:09:55.888Z,14.55
2017-09-03T12:12:23.372Z,18.10
2017-09-03T12:14:50.872Z,12.68
2017-09-03T12:17:18.351Z,18.33
2017-09-03T12:19:45.787Z,19.48
2017-09-03T12:22:13.236Z,20.95
2017-09-03T12:24:40.735Z,19.67
2017-09-03T12:27:08.249Z,16.45
2017-09-03T12:29:35.716Z,17.73
2017-09-03T12:32:03.160Z,11.00
2017-09-03T12:34:30.611Z,12.65
2017-09-03T12:36:58.106Z,13.50
2017-09-03T12:39:25.679Z,7.47
2017-09-03T12:41:53.160Z,9.98
2017-09-03T12:44:20.686Z,7.77
2017-09-03T12:46:48.127Z,7.50
2017-09-03T12:49:15.629Z,9.50
2017-09-03T12:51:43.070Z,11.27
2017-09-03T12:54:10.499Z,7.53
2017-09-03T12:56:37.935Z,9.70
2017-09-03T12:59:05.371Z,9.27
2017-09-03T13:01:32.811Z,8.57
2017-09-03T13:04:00.256Z,8.33
2017-09-03T13:06:27.687Z,8.20
2017-09-03T13:08:55.134Z,9.37
2017-09-03T13:11:22.569Z,10.87
2017-09-03T13:13:50.013Z,8.90
2017-09-03T13:16:17.445Z,9.60
2017-09-03T13:18:44.908Z,9.87
2017-09-03T13:21:12.335Z,10.50
2017-09-03T13:23:39.781Z,11.20
2017-09-03T13:26:07.263Z,14.63
2017-09-03T13:28:34.685Z,9.73
2017-09-03T13:31:02.130Z,9.77
2017-09-03T13:33:29.707Z,10.40
2017-09-03T13:35:57.213Z,10.63
2017-09-03T13:38:24.643Z,11.60
2017-09-03T13:40:52.144Z,10.10
2017-09-03T13:43:19.696Z,11.20
2017-09-03T13:45:47.122Z,17.03
2017-09-03T13:48:14.562Z,9.73
2017-09-03T13:50:42.016Z,20.63
2017-09-03T13:53:09.485Z,12.53
2017-09-03T13:55:36.920Z,9.63
2017-09-03T13:58:04.365Z,9.93
2017-09-03T14:00:31.892Z,10.07
2017-09-03T14:02:59.332Z,10.13
2017-09-03T14:05:26.766Z,10.40
2017-09-03T14:07:54.245Z,12.10
2017-09-03T14:10:21.726Z,8.40
2017-09-03T14:12:49.202Z,8.80
2017-09-03T14:15:16.647Z,11.80
2017-09-03T14:17:44.108Z,8.07
2017-09-03T14:20:11.585Z,12.87
2017-09-03T14:22:39.033Z,9.83
2017-09-03T14:25:06.550Z,9.00
2017-09-03T14:27:34.031Z,12.27
2017-09-03T14:30:01.579Z,9.85
2017-09-03T14:32:29.039Z,10.45
2017-09-03T14:34:56.501Z,13.20
2017-09-03T14:37:23.947Z,7.55
2017-09-03T14:39:51.405Z,9.85
2017-09-03T14:42:18.877Z,9.40
2017-09-03T14:44:46.324Z,9.43
2017-09-03T14:47:13.779Z,9.13
2017-09-03T14:49:41.267Z,10.15
2017-09-03T14:52:08.715Z,9.25
2017-09-03T14:54:36.182Z,8.43
2017-09-03T14:57:03.691Z,10.57
2017-09-03T14:59:31.127Z,9.90
2017-09-03T15:01:58.603Z,8.65
2017-09-03T15:04:26.067Z,9.45
2017-09-03T15:06:53.500Z,11.18
2017-09-03T15:09:21.009Z,9.95
2017-09-03T15:11:48.498Z,12.82
2017-09-03T15:14:15.960Z,10.48
2017-09-03T15:16:43.410Z,11.98
2017-09-03T15:19:10.901Z,7.55
2017-09-03T15:21:38.357Z,10.93
2017-09-03T15:24:05.796Z,7.60
2017-09-03T15:26:33.237Z,7.22
2017-09-03T15:29:00.688Z,9.57
2017-09-03T15:31:28.226Z,8.63
2017-09-03T15:33:55.671Z,9.23
2017-09-03T15:36:23.150Z,8.35
2017-09-03T15:38:50.608Z,11.00
2017-09-03T15:41:18.147Z,10.48
2017-09-03T15:43:45.636Z,8.05
2017-09-03T15:46:13.167Z,7.40
2017-09-03T15:48:40.633Z,7.78
2017-09-03T15:51:08.080Z,7.50
2017-09-03T15:53:35.538Z,8.95
2017-09-03T15:56:03.072Z,7.20
2017-09-03T15:58:30.511Z,9.10
2017-09-03T16:00:58.004Z,7.68
2017-09-03T16:03:25.507Z,8.40
2017-09-03T16:05:52.959Z,6.90
2017-09-03T16:08:20.426Z,7.97
2017-09-03T16:10:47.931Z,7.30
2017-09-03T16:13:15.413Z,7.00
2017-09-03T16:15:42.899Z,6.62
2017-09-03T16:18:10.377Z,7.30
2017-09-03T16:20:37.825Z,9.93
2017-09-03T16:23:05.340Z,7.43
2017-09-03T16:25:32.784Z,7.00
2017-09-03T16:28:00.253Z,7.40
2017-09-03T16:30:27.695Z,7.87
2017-09-03T16:32:55.155Z,8.82
2017-09-03T16:35:22.595Z,7.45
2017-09-03T16:37:50.067Z,8.25
2017-09-03T16:40:17.508Z,5.60
2017-09-03T16:42:44.959Z,5.93
2017-09-03T16:45:12.422Z,5.25
2017-09-03T16:47:39.907Z,10.15
2017-09-03T16:50:07.352Z,7.82
2017-09-03T16:52:34.852Z,7.03
2017-09-03T16:55:02.329Z,7.70
2017-09-03T16:57:29.772Z,6.70
2017-09-03T16:59:57.209Z,6.97
2017-09-03T17:02:24.657Z,7.75
2017-09-03T17:04:52.114Z,7.30
2017-09-03T17:07:19.540Z,9.68
2017-09-03T17:09:46.979Z,7.40
2017-09-03T17:12:14.422Z,7.55
2017-09-03T17:14:41.877Z,7.20
2017-09-03T17:17:09.307Z,6.82
2017-09-03T17:19:36.752Z,9.48
2017-09-03T17:22:05.141Z,8.00
2017-09-03T17:24:32.601Z,7.22
2017-09-03T17:27:00.035Z,7.28
2017-09-03T17:29:28.256Z,7.95
2017-09-03T17:31:55.810Z,9.13
2017-09-03T17:37:26.985Z,7.12
2017-09-03T17:39:54.535Z,6.35
2017-09-03T17:42:23.889Z,6.70
2017-09-03T17:44:51.328Z,6.18
2017-09-03T17:47:18.767Z,6.03
2017-09-03T17:49:46.216Z,6.25
2017-09-03T17:52:13.656Z,6.53
2017-09-03T17:54:41.119Z,5.90
2017-09-03T17:57:08.584Z,6.65
2017-09-03T17:59:36.023Z,5.25
2017-09-03T18:02:03.469Z,7.50
2017-09-03T18:04:30.910Z,9.00
2017-09-03T18:06:58.355Z,12.18
2017-09-03T18:09:25.903Z,6.68
2017-09-03T18:11:53.410Z,6.78
2017-09-03T18:14:20.843Z,5.75
2017-09-03T18:16:48.303Z,6.53
2017-09-03T18:19:15.747Z,6.65
2017-09-03T18:21:43.175Z,8.15
2017-09-03T18:24:10.646Z,6.03
2017-09-03T18:26:38.119Z,4.75
2017-09-03T18:29:06.454Z,6.30
2017-09-03T18:31:39.790Z,4.75
2017-09-03T18:34:07.254Z,6.25
2017-09-03T18:36:36.294Z,4.97
2017-09-03T18:39:04.191Z,7.62
2017-09-03T18:41:31.642Z,6.85
2017-09-03T18:44:15.743Z,5.25
2017-09-03T18:46:54.009Z,5.50
2017-09-03T18:49:21.904Z,4.50
2017-09-03T18:51:54.959Z,4.87
2017-09-03T18:57:19.862Z,5.60
2017-09-03T18:59:48.081Z,9.80
2017-09-03T19:02:15.514Z,6.43
2017-09-03T19:04:52.901Z,6.47
2017-09-03T19:07:20.298Z,7.57
2017-09-03T19:09:47.789Z,7.07
2017-09-03T19:12:15.244Z,7.12
2017-09-03T19:14:42.702Z,11.70
2017-09-03T19:17:10.120Z,9.90
2017-09-03T19:19:37.568Z,7.32
2017-09-03T19:22:04.992Z,5.85
2017-09-03T19:24:32.460Z,6.12
2017-09-03T19:26:59.985Z,7.28
2017-09-03T19:29:27.442Z,6.00
2017-09-03T19:31:54.875Z,6.07
2017-09-03T19:34:22.318Z,6.40
2017-09-03T19:36:49.771Z,6.57
2017-09-03T19:39:17.203Z,10.40
2017-09-03T19:41:44.673Z,6.07
2017-09-03T19:44:12.111Z,6.62
2017-09-03T19:46:39.563Z,7.35
2017-09-03T19:49:07.064Z,6.85
2017-09-03T19:51:34.545Z,8.13
2017-09-03T19:54:01.988Z,7.18
2017-09-03T19:56:29.439Z,7.30
2017-09-03T19:58:56.867Z,15.68
2017-09-03T20:01:24.329Z,8.77
2017-09-03T20:03:51.771Z,7.07
2017-09-03T20:06:19.212Z,10.32
2017-09-03T20:08:46.660Z,9.98
2017-09-03T20:11:14.104Z,7.72
2017-09-03T20:13:41.555Z,7.05
2017-09-03T20:16:09.012Z,7.80
2017-09-03T20:18:36.435Z,9.68
2017-09-03T20:21:03.879Z,15.55
2017-09-03T20:23:31.349Z,8.18
2017-09-03T20:25:58.799Z,6.78
2017-09-03T20:28:26.234Z,8.20
2017-09-03T20:30:53.666Z,11.52
2017-09-03T20:33:21.102Z,7.40
2017-09-03T20:35:48.600Z,8.52
2017-09-03T20:38:16.033Z,9.60
2017-09-03T20:40:43.476Z,8.50
2017-09-03T20:43:10.951Z,8.35
2017-09-03T20:45:38.391Z,8.48
2017-09-03T20:48:05.841Z,9.35
2017-09-03T20:50:33.271Z,7.87
2017-09-03T20:53:00.744Z,6.60
2017-09-03T20:55:28.176Z,5.95
2017-09-03T20:57:55.620Z,8.50
2017-09-03T21:00:23.070Z,8.02
2017-09-03T21:02:50.515Z,7.70
2017-09-03T21:05:17.962Z,7.40
2017-09-03T21:07:45.401Z,9.20
2017-09-03T21:10:12.880Z,7.53
2017-09-03T21:12:40.312Z,7.00
2017-09-03T21:15:07.751Z,8.20
2017-09-03T21:17:35.186Z,6.20
2017-09-03T21:20:02.623Z,9.63
2017-09-03T21:22:30.062Z,8.82
2017-09-03T21:24:57.498Z,8.88
2017-09-03T21:27:24.964Z,7.93
2017-09-03T21:29:52.393Z,7.60
2017-09-03T21:32:19.832Z,8.93
2017-09-03T21:34:47.274Z,8.40
2017-09-03T21:37:14.735Z,10.50
2017-09-03T21:39:42.200Z,9.77
2017-09-03T21:42:09.650Z,7.20
2017-09-03T21:44:37.088Z,7.10
2017-09-03T21:47:04.520Z,6.72
2017-09-03T21:49:31.979Z,7.45
2017-09-03T21:51:59.449Z,13.23
2017-09-03T21:54:26.903Z,6.80
2017-09-03T21:56:54.351Z,9.23
2017-09-03T21:59:21.800Z,7.50
2017-09-03T22:01:49.234Z,9.40
2017-09-03T22:04:16.683Z,6.00
2017-09-03T22:06:44.162Z,8.90
2017-09-03T22:09:11.609Z,8.07
2017-09-03T22:11:39.052Z,9.75
2017-09-03T22:14:06.510Z,7.10
2017-09-03T22:16:33.943Z,9.25
2017-09-03T22:19:01.419Z,6.30
2017-09-03T22:21:28.849Z,11.57
2017-09-03T22:23:56.363Z,6.32
2017-09-03T22:26:23.824Z,7.65
2017-09-03T22:28:51.263Z,7.03
2017-09-03T22:31:18.708Z,6.55
2017-09-03T22:33:46.169Z,8.75
2017-09-03T22:36:13.618Z,7.75
2017-09-03T22:38:41.031Z,6.97
2017-09-03T22:41:08.463Z,5.90
2017-09-03T22:43:35.895Z,8.93
2017-09-03T22:46:03.348Z,9.07
2017-09-03T22:48:30.798Z,12.27
2017-09-03T22:50:58.222Z,7.35
2017-09-03T22:53:25.664Z,7.57
2017-09-03T22:55:53.088Z,11.38
2017-09-03T22:58:20.517Z,6.82
2017-09-03T23:00:48.004Z,7.97
2017-09-03T23:03:15.443Z,6.72
2017-09-03T23:05:42.881Z,8.32
2017-09-03T23:08:10.315Z,7.70
2017-09-03T23:10:43.675Z,6.40
2017-09-03T23:13:11.096Z,8.70
2017-09-03T23:15:38.536Z,7.50
2017-09-03T23:18:05.967Z,10.15
2017-09-03T23:20:33.416Z,10.07
2017-09-03T23:23:00.851Z,9.13
2017-09-03T23:25:28.296Z,10.63
2017-09-03T23:27:55.758Z,8.32
2017-09-03T23:30:23.199Z,9.13
2017-09-03T23:32:50.640Z,11.88
2017-09-03T23:35:18.057Z,7.20
2017-09-03T23:37:45.520Z,8.25
2017-09-03T23:40:12.940Z,11.05
2017-09-03T23:42:40.391Z,5.90
2017-09-03T23:45:07.814Z,7.18
2017-09-03T23:47:35.250Z,6.97
2017-09-03T23:50:02.679Z,6.85
2017-09-03T23:52:30.117Z,8.35
2017-09-03T23:54:57.548Z,8.57
2017-09-03T23:57:24.984Z,6.90
2017-09-03T23:59:52.410Z,6.18
